Time;durP1;ratioP1;P1;durP2;ratioP2;P2;SDS_P1;SDS_P2;PMS_P1;PMS_P2;Temp;Humidity;BMP_temperature;BMP_pressure;BME280_temperature;BME280_humidity;BME280_pressure;Samples;Min_cycle;Max_cycle;Signal;HPM_P1;HPM_P2
2021/05/03 00:01:53;;;;;;;4.47;3.22;;;;;;;;;;5096463;28;20067;-57
2021/05/03 00:04:19;;;;;;;4.82;3.58;;;;;;;;;;5094861;28;20085;-57
2021/05/03 00:06:45;;;;;;;5.15;3.17;;;;;;;;;;5096736;28;20028;-58
2021/05/03 00:09:11;;;;;;;3.90;3.13;;;;;;;;;;5095199;28;20028;-58
2021/05/03 00:11:37;;;;;;;4.85;3.40;;;;;;;;;;5096081;28;20051;-57
2021/05/03 00:14:04;;;;;;;5.45;3.88;;;;;;;;;;5096157;28;20028;-57
2021/05/03 00:16:30;;;;;;;5.00;4.05;;;;;;;;;;5096243;28;20432;-57
2021/05/03 00:18:56;;;;;;;4.70;4.13;;;;;;;;;;5094621;28;20024;-57
2021/05/03 00:21:22;;;;;;;9.65;3.58;;;;;;;;;;5096120;28;20016;-58
2021/05/03 00:23:52;;;;;;;4.68;3.40;;;;;;;;;;5095231;28;20035;-57
2021/05/03 00:26:18;;;;;;;5.28;3.90;;;;;;;;;;5094395;28;20028;-56
2021/05/03 00:28:46;;;;;;;5.00;3.67;;;;;;;;;;5095643;28;20024;-57
2021/05/03 00:31:12;;;;;;;5.03;3.30;;;;;;;;;;5095892;28;20473;-57
2021/05/03 00:33:41;;;;;;;6.50;3.53;;;;;;;;;;5095454;28;20038;-57
2021/05/03 00:36:07;;;;;;;5.10;3.63;;;;;;;;;;5095518;28;20020;-57
2021/05/03 00:38:35;;;;;;;5.45;3.90;;;;;;;;;;5096369;28;20031;-57
2021/05/03 00:41:02;;;;;;;4.93;3.60;;;;;;;;;;5094686;28;20028;-58
2021/05/03 00:43:32;;;;;;;3.85;3.40;;;;;;;;;;5094417;28;20381;-57
2021/05/03 00:46:03;;;;;;;8.57;4.78;;;;;;;;;;5093981;28;20493;-55
2021/05/03 00:48:29;;;;;;;4.80;4.03;;;;;;;;;;5096024;28;20040;-57
2021/05/03 00:50:55;;;;;;;4.57;3.75;;;;;;;;;;5095319;28;20454;-57
2021/05/03 00:53:25;;;;;;;5.55;3.90;;;;;;;;;;5095089;28;20473;-57
2021/05/03 00:55:51;;;;;;;4.30;3.65;;;;;;;;;;5094886;28;20052;-58
2021/05/03 00:58:17;;;;;;;7.35;4.53;;;;;;;;;;5094054;28;20488;-58
2021/05/03 01:00:47;;;;;;;5.13;3.97;;;;;;;;;;5093368;28;20432;-58
2021/05/03 01:03:14;;;;;;;4.68;4.20;;;;;;;;;;5095914;28;20052;-57
2021/05/03 01:05:40;;;;;;;4.57;3.58;;;;;;;;;;5095283;28;20020;-58
2021/05/03 01:08:10;;;;;;;4.70;4.10;;;;;;;;;;5094750;28;20073;-57
2021/05/03 01:10:37;;;;;;;4.70;3.33;;;;;;;;;;5094218;28;20119;-57
2021/05/03 01:13:05;;;;;;;4.95;4.13;;;;;;;;;;5093841;28;20085;-58
2021/05/03 01:15:34;;;;;;;4.93;4.10;;;;;;;;;;5095652;28;20036;-58
2021/05/03 01:18:01;;;;;;;6.00;4.00;;;;;;;;;;5095081;28;20076;-57
2021/05/03 01:20:38;;;;;;;9.00;5.25;;;;;;;;;;5094047;28;20035;-58
2021/05/03 01:23:05;;;;;;;7.28;5.15;;;;;;;;;;5093490;28;20040;-57
2021/05/03 01:25:42;;;;;;;6.68;5.15;;;;;;;;;;5094421;28;20030;-57
2021/05/03 01:28:16;;;;;;;5.75;4.80;;;;;;;;;;5095131;28;20024;-58
2021/05/03 01:30:49;;;;;;;8.48;5.93;;;;;;;;;;5094890;28;20081;-56
2021/05/03 01:33:16;;;;;;;6.63;5.97;;;;;;;;;;5094647;28;20028;-58
2021/05/03 01:35:51;;;;;;;6.53;5.78;;;;;;;;;;5093124;28;20032;-57
2021/05/03 01:38:19;;;;;;;8.95;6.03;;;;;;;;;;5094697;28;20027;-57
2021/05/03 01:40:47;;;;;;;6.30;5.60;;;;;;;;;;5094945;28;20026;-55
2021/05/03 01:43:22;;;;;;;8.95;6.18;;;;;;;;;;5094161;28;20028;-56
2021/05/03 01:45:54;;;;;;;6.85;5.63;;;;;;;;;;5092921;28;20389;-56
2021/05/03 01:48:30;;;;;;;7.18;5.55;;;;;;;;;;5093013;28;20119;-57
2021/05/03 01:50:57;;;;;;;4.60;4.18;;;;;;;;;;5093594;28;20504;-57
2021/05/03 01:53:32;;;;;;;7.28;6.20;;;;;;;;;;5092756;28;20028;-55
2021/05/03 01:56:08;;;;;;;6.60;5.63;;;;;;;;;;5092706;28;20048;-57
2021/05/03 01:58:42;;;;;;;7.22;6.18;;;;;;;;;;5095346;28;20115;-57
2021/05/03 02:01:08;;;;;;;9.25;6.57;;;;;;;;;;5093540;28;20017;-57
2021/05/03 02:03:35;;;;;;;8.75;6.80;;;;;;;;;;5093969;28;20080;-57
2021/05/03 02:06:09;;;;;;;15.38;7.22;;;;;;;;;;5092976;28;20377;-57
2021/05/03 02:08:35;;;;;;;6.25;5.65;;;;;;;;;;5093610;28;20031;-56
2021/05/03 02:11:07;;;;;;;8.77;6.70;;;;;;;;;;5094028;28;20473;-57
2021/05/03 02:13:39;;;;;;;6.53;5.68;;;;;;;;;;5095005;28;20035;-57
2021/05/03 02:16:08;;;;;;;7.70;6.07;;;;;;;;;;5076884;28;20031;-57
2021/05/03 02:18:34;;;;;;;7.75;6.50;;;;;;;;;;5076113;28;20381;-57
2021/05/03 02:21:01;;;;;;;11.75;6.10;;;;;;;;;;5094133;28;20024;-58
2021/05/03 02:23:33;;;;;;;8.05;5.47;;;;;;;;;;5094603;28;20480;-58
2021/05/03 02:26:07;;;;;;;7.80;5.55;;;;;;;;;;5093994;28;20028;-57
2021/05/03 02:28:33;;;;;;;7.65;5.72;;;;;;;;;;5094198;28;20411;-56
2021/05/03 02:30:59;;;;;;;6.63;5.53;;;;;;;;;;5094281;28;20028;-57
2021/05/03 02:33:36;;;;;;;8.48;6.43;;;;;;;;;;5093896;28;20462;-58
2021/05/03 02:36:05;;;;;;;8.07;6.20;;;;;;;;;;5093982;28;20023;-57
2021/05/03 02:38:34;;;;;;;7.22;6.50;;;;;;;;;;5093855;28;20029;-58
2021/05/03 02:41:03;;;;;;;9.15;7.47;;;;;;;;;;5094437;28;20118;-56
2021/05/03 02:43:30;;;;;;;8.05;6.40;;;;;;;;;;5093796;28;20047;-56
2021/05/03 02:45:58;;;;;;;8.05;6.88;;;;;;;;;;5093557;28;20405;-57
2021/05/03 02:48:27;;;;;;;8.10;6.35;;;;;;;;;;5093514;28;20085;-57
2021/05/03 02:50:57;;;;;;;9.37;7.17;;;;;;;;;;5093467;28;20450;-56
2021/05/03 02:53:23;;;;;;;8.82;6.35;;;;;;;;;;5094205;28;20377;-57
2021/05/03 02:55:55;;;;;;;8.52;6.63;;;;;;;;;;5092865;28;20084;-57
2021/05/03 02:58:21;;;;;;;7.13;6.43;;;;;;;;;;5075226;28;20044;-57
2021/05/03 03:00:47;;;;;;;10.20;7.85;;;;;;;;;;5093667;28;20031;-57
2021/05/03 03:03:14;;;;;;;7.20;6.45;;;;;;;;;;5093890;28;20073;-57
2021/05/03 03:05:43;;;;;;;7.80;7.00;;;;;;;;;;5093632;28;20017;-58
2021/05/03 03:08:12;;;;;;;7.47;6.57;;;;;;;;;;5095021;28;20024;-57
2021/05/03 03:10:39;;;;;;;9.20;7.03;;;;;;;;;;5096691;28;20020;-57
2021/05/03 03:13:11;;;;;;;9.50;7.63;;;;;;;;;;5098047;28;20039;-56
2021/05/03 03:15:40;;;;;;;7.80;6.97;;;;;;;;;;5097814;28;20118;-57
2021/05/03 03:18:09;;;;;;;11.05;8.15;;;;;;;;;;5097776;28;20021;-57
2021/05/03 03:20:47;;;;;;;8.93;6.80;;;;;;;;;;5097637;28;20028;-57
2021/05/03 03:23:16;;;;;;;10.85;8.52;;;;;;;;;;5097319;28;20028;-57
2021/05/03 03:25:58;;;;;;;8.48;7.65;;;;;;;;;;5097308;28;20032;-57
2021/05/03 03:28:25;;;;;;;8.73;7.82;;;;;;;;;;5096962;28;20056;-56
2021/05/03 03:30:51;;;;;;;11.43;7.88;;;;;;;;;;5097865;28;20442;-57
2021/05/03 03:33:23;;;;;;;8.77;6.78;;;;;;;;;;5095380;28;20055;-57
2021/05/03 03:35:49;;;;;;;9.60;7.78;;;;;;;;;;5096952;28;20016;-57
2021/05/03 03:38:19;;;;;;;9.35;6.97;;;;;;;;;;5097087;28;20035;-57
2021/05/03 03:40:48;;;;;;;8.13;7.18;;;;;;;;;;5095629;28;20024;-57
2021/05/03 03:43:19;;;;;;;11.60;8.88;;;;;;;;;;5097684;28;20032;-55
2021/05/03 03:45:45;;;;;;;10.02;8.93;;;;;;;;;;5096302;28;20034;-57
2021/05/03 03:48:12;;;;;;;8.83;8.00;;;;;;;;;;5096625;28;20111;-54
2021/05/03 03:50:39;;;;;;;8.85;7.95;;;;;;;;;;5097252;28;20078;-56
2021/05/03 03:53:08;;;;;;;11.35;10.07;;;;;;;;;;5096760;28;20446;-57
2021/05/03 03:55:38;;;;;;;10.35;8.80;;;;;;;;;;5096187;28;20519;-57
2021/05/03 03:58:04;;;;;;;9.07;7.85;;;;;;;;;;5078809;28;20469;-57
2021/05/03 04:00:32;;;;;;;9.90;8.85;;;;;;;;;;5096801;28;20036;-57
2021/05/03 04:03:24;;;;;;;9.93;7.65;;;;;;;;;;5095600;28;20032;-57
2021/05/03 04:06:16;;;;;;;10.25;8.60;;;;;;;;;;5087717;28;20035;-58
2021/05/03 04:08:49;;;;;;;9.55;8.45;;;;;;;;;;5095091;28;20111;-57
2021/05/03 04:14:15;;;;;;;10.55;8.63;;;;;;;;;;5096547;28;20474;-57
2021/05/03 04:25:13;;;;;;;10.00;8.98;;;;;;;;;;5096665;28;20550;-56
2021/05/03 04:27:43;;;;;;;9.52;8.40;;;;;;;;;;5096891;28;20020;-56
2021/05/03 04:30:10;;;;;;;13.05;9.90;;;;;;;;;;5096807;28;20412;-57
2021/05/03 04:32:37;;;;;;;10.27;9.02;;;;;;;;;;5095034;28;20028;-56
2021/05/03 04:35:06;;;;;;;11.02;9.52;;;;;;;;;;5094821;28;20028;-58
2021/05/03 04:37:41;;;;;;;11.80;9.02;;;;;;;;;;5095785;28;20027;-55
2021/05/03 04:40:08;;;;;;;8.65;7.63;;;;;;;;;;5094904;28;20036;-58
2021/05/03 04:42:37;;;;;;;10.77;9.23;;;;;;;;;;5094716;28;20024;-56
2021/05/03 04:45:04;;;;;;;10.13;9.05;;;;;;;;;;5095724;28;20416;-56
2021/05/03 04:47:30;;;;;;;10.45;8.77;;;;;;;;;;5077489;28;20020;-58
2021/05/03 04:49:59;;;;;;;9.68;8.45;;;;;;;;;;5095480;28;20028;-58
2021/05/03 04:52:28;;;;;;;11.48;9.50;;;;;;;;;;5095450;28;20429;-56
2021/05/03 04:54:59;;;;;;;10.82;8.80;;;;;;;;;;5093985;28;20060;-57
2021/05/03 04:57:37;;;;;;;11.32;9.60;;;;;;;;;;5093871;28;20051;-58
2021/05/03 05:00:14;;;;;;;8.77;7.97;;;;;;;;;;5096176;28;20024;-57
2021/05/03 05:02:51;;;;;;;9.48;8.57;;;;;;;;;;5095882;28;20426;-57
2021/05/03 05:05:20;;;;;;;12.10;8.30;;;;;;;;;;5094050;28;20424;-55
2021/05/03 05:07:49;;;;;;;12.05;9.23;;;;;;;;;;5077437;28;20485;-57
2021/05/03 05:10:18;;;;;;;14.48;9.88;;;;;;;;;;5077635;28;20530;-55
2021/05/03 05:12:48;;;;;;;9.07;8.15;;;;;;;;;;5093644;28;20407;-56
2021/05/03 05:15:15;;;;;;;12.23;7.63;;;;;;;;;;5092558;28;20484;-58
2021/05/03 05:17:47;;;;;;;8.90;6.82;;;;;;;;;;5093863;28;20028;-56
2021/05/03 05:20:14;;;;;;;9.10;7.88;;;;;;;;;;5095406;28;20032;-56
2021/05/03 05:22:40;;;;;;;8.05;6.80;;;;;;;;;;5095287;28;20102;-58
2021/05/03 05:25:12;;;;;;;10.60;6.40;;;;;;;;;;5093508;28;20481;-58
2021/05/03 05:27:39;;;;;;;8.45;7.00;;;;;;;;;;5095338;28;20024;-58
2021/05/03 05:30:05;;;;;;;9.32;7.20;;;;;;;;;;5094423;28;20027;-58
2021/05/03 05:32:32;;;;;;;7.90;7.10;;;;;;;;;;5094870;28;20105;-56
2021/05/03 05:35:10;;;;;;;6.28;5.50;;;;;;;;;;5093127;28;20032;-57
2021/05/03 05:37:38;;;;;;;7.45;6.65;;;;;;;;;;5093146;28;20024;-58
2021/05/03 05:40:07;;;;;;;8.35;7.03;;;;;;;;;;5093109;28;20028;-57
2021/05/03 05:42:36;;;;;;;11.23;7.53;;;;;;;;;;5093132;28;20028;-59
2021/05/03 05:45:05;;;;;;;8.27;7.47;;;;;;;;;;5093028;28;20474;-58
2021/05/03 05:47:34;;;;;;;8.10;7.15;;;;;;;;;;5092783;28;20055;-59
2021/05/03 05:50:07;;;;;;;7.68;6.88;;;;;;;;;;5095142;28;20118;-59
2021/05/03 05:52:38;;;;;;;7.30;6.18;;;;;;;;;;5094164;28;20043;-59
2021/05/03 05:55:07;;;;;;;;;;;;;;;;;;5095565;28;20373;-59
2021/05/03 05:57:36;;;;;;;7.47;6.78;;;;;;;;;;5093248;28;20375;-59
2021/05/03 06:00:03;;;;;;;8.68;7.85;;;;;;;;;;5094463;28;20039;-59
2021/05/03 06:02:31;;;;;;;7.53;6.55;;;;;;;;;;5092602;28;20059;-59
2021/05/03 06:04:58;;;;;;;6.78;6.03;;;;;;;;;;5092819;28;20457;-59
2021/05/03 06:07:31;;;;;;;7.30;6.13;;;;;;;;;;5094002;28;20031;-59
2021/05/03 06:09:58;;;;;;;6.90;6.20;;;;;;;;;;5094170;28;20028;-59
2021/05/03 06:12:24;;;;;;;7.30;6.30;;;;;;;;;;5094044;28;20024;-59
2021/05/03 06:14:52;;;;;;;8.43;5.90;;;;;;;;;;5092524;28;20035;-59
2021/05/03 06:17:21;;;;;;;6.57;5.97;;;;;;;;;;5092603;28;20066;-59
2021/05/03 06:19:48;;;;;;;7.07;6.38;;;;;;;;;;5094457;28;20036;-59
2021/05/03 06:22:14;;;;;;;7.13;6.43;;;;;;;;;;5092543;28;20549;-59
2021/05/03 06:24:44;;;;;;;5.78;4.95;;;;;;;;;;5093997;28;20382;-59
2021/05/03 06:27:12;;;;;;;8.60;7.25;;;;;;;;;;5093921;28;20070;-59
2021/05/03 06:29:42;;;;;;;11.25;5.97;;;;;;;;;;5093671;28;20048;-59
2021/05/03 06:32:08;;;;;;;9.27;6.85;;;;;;;;;;5092584;28;20028;-59
2021/05/03 06:34:34;;;;;;;8.82;7.20;;;;;;;;;;5092338;28;20508;-59
2021/05/03 06:37:03;;;;;;;7.68;6.97;;;;;;;;;;5092598;28;20020;-59
2021/05/03 06:39:29;;;;;;;7.15;6.45;;;;;;;;;;5093474;28;20020;-59
2021/05/03 06:41:58;;;;;;;7.15;6.45;;;;;;;;;;5093975;28;20021;-59
2021/05/03 06:44:24;;;;;;;7.80;6.80;;;;;;;;;;5093689;28;20024;-59
2021/05/03 06:46:55;;;;;;;9.55;6.30;;;;;;;;;;5094666;28;20024;-59
2021/05/03 06:49:22;;;;;;;9.68;6.25;;;;;;;;;;5093347;28;20400;-59
2021/05/03 06:51:50;;;;;;;11.65;7.28;;;;;;;;;;5093567;28;20028;-59
